createdAt,value
2019-05-20T00:03:52.644Z,80.29
2019-05-20T00:08:54.866Z,80.21
2019-05-20T00:13:57.082Z,80.26
2019-05-20T00:19:00.473Z,79.56
2019-05-20T00:24:02.540Z,79.83
2019-05-20T00:29:07.344Z,79.64
2019-05-20T00:34:09.500Z,80.09
2019-05-20T00:39:20.682Z,79.83
2019-05-20T00:44:23.869Z,79.68
2019-05-20T00:49:26.793Z,80.17
2019-05-20T00:54:28.992Z,79.67
2019-05-20T00:59:31.466Z,79.50
2019-05-20T01:04:35.174Z,79.79
2019-05-20T01:09:38.604Z,80.54
2019-05-20T01:14:40.686Z,80.30
2019-05-20T01:19:42.761Z,80.34
2019-05-20T01:24:44.766Z,80.36
2019-05-20T01:29:46.781Z,80.75
2019-05-20T01:34:48.976Z,80.38
2019-05-20T01:39:50.971Z,80.26
2019-05-20T01:44:53.047Z,80.45
2019-05-20T01:49:55.097Z,79.96
2019-05-20T01:54:57.162Z,79.96
2019-05-20T01:59:59.185Z,79.96
2019-05-20T02:05:01.899Z,80.02
2019-05-20T02:10:04.825Z,80.25
2019-05-20T02:15:14.023Z,79.31
2019-05-20T02:20:16.298Z,80.42
2019-05-20T02:25:18.456Z,80.45
2019-05-20T02:30:20.692Z,80.71
2019-05-20T02:35:22.675Z,80.73
2019-05-20T02:40:24.872Z,80.12
2019-05-20T02:45:27.030Z,80.60
2019-05-20T02:50:29.214Z,80.42
2019-05-20T02:55:31.327Z,80.85
2019-05-20T03:00:33.439Z,80.51
2019-05-20T03:05:35.439Z,80.90
2019-05-20T03:10:37.727Z,80.80
2019-05-20T03:15:39.859Z,80.90
2019-05-20T03:20:41.821Z,80.71
2019-05-20T03:25:44.002Z,80.38
2019-05-20T03:30:46.156Z,80.73
2019-05-20T03:35:51.313Z,80.64
2019-05-20T03:40:53.399Z,80.02
2019-05-20T03:45:55.604Z,81.12
2019-05-20T03:50:57.883Z,82.53
2019-05-20T03:55:59.881Z,82.42
2019-05-20T04:01:01.864Z,83.00
2019-05-20T04:06:04.389Z,83.23
2019-05-20T04:11:06.601Z,83.56
2019-05-20T04:16:08.616Z,83.38
2019-05-20T04:27:08.779Z,86.22
2019-05-20T04:32:12.307Z,83.71
2019-05-20T04:37:14.258Z,83.86
2019-05-20T04:42:16.209Z,84.31
2019-05-20T04:47:18.255Z,84.16
2019-05-20T04:52:20.217Z,84.31
2019-05-20T04:57:22.155Z,84.63
2019-05-20T05:02:24.163Z,84.80
2019-05-20T05:07:26.374Z,84.61
2019-05-20T05:12:30.195Z,84.39
2019-05-20T05:17:32.521Z,83.75
2019-05-20T05:22:35.850Z,83.34
2019-05-20T05:33:05.154Z,86.24
2019-05-20T05:38:08.726Z,83.92
2019-05-20T05:43:10.852Z,83.18
2019-05-20T05:48:12.964Z,83.60
2019-05-20T05:53:15.516Z,83.67
2019-05-20T05:58:18.803Z,83.72
2019-05-20T06:03:21.050Z,84.75
2019-05-20T06:08:23.139Z,84.59
2019-05-20T06:13:25.228Z,84.23
2019-05-20T06:18:27.465Z,84.56
2019-05-20T06:23:29.413Z,84.23
2019-05-20T06:28:31.494Z,84.28
2019-05-20T06:33:33.773Z,83.60
2019-05-20T06:38:40.435Z,83.35
2019-05-20T06:43:42.509Z,83.46
2019-05-20T06:48:44.542Z,82.24
2019-05-20T06:53:46.547Z,83.22
2019-05-20T06:58:48.613Z,81.73
2019-05-20T07:03:50.838Z,81.81
2019-05-20T07:08:52.962Z,81.20
2019-05-20T07:13:54.923Z,81.03
2019-05-20T07:18:57.028Z,82.39
2019-05-20T07:24:00.426Z,81.49
2019-05-20T07:30:29.129Z,77.69
2019-05-20T07:35:31.487Z,81.46
2019-05-20T07:40:33.827Z,81.19
2019-05-20T07:45:37.548Z,81.28
2019-05-20T07:50:41.141Z,80.71
2019-05-20T07:55:57.040Z,80.93
2019-05-20T08:01:00.783Z,80.47
2019-05-20T08:06:03.237Z,79.35
2019-05-20T08:11:05.643Z,79.28
2019-05-20T08:16:07.798Z,78.61
2019-05-20T08:21:09.882Z,78.84
2019-05-20T08:26:12.033Z,79.17
2019-05-20T08:31:14.121Z,78.69
2019-05-20T08:36:16.283Z,78.43
2019-05-20T08:41:19.378Z,78.74
2019-05-20T08:46:21.793Z,78.07
2019-05-20T08:51:23.865Z,77.91
2019-05-20T08:56:26.245Z,79.19
2019-05-20T09:01:28.256Z,77.60
2019-05-20T09:06:30.626Z,78.22
2019-05-20T09:11:32.664Z,77.22
2019-05-20T09:16:34.726Z,77.43
2019-05-20T09:21:36.698Z,76.28
2019-05-20T09:26:38.782Z,74.48
2019-05-20T09:31:41.642Z,75.70
2019-05-20T09:36:43.758Z,76.50
2019-05-20T09:41:45.714Z,75.70
2019-05-20T09:46:47.894Z,74.39
2019-05-20T09:51:49.979Z,75.30
2019-05-20T09:56:53.336Z,75.11
2019-05-20T10:01:55.363Z,75.27
2019-05-20T10:06:57.411Z,74.52
2019-05-20T10:11:59.473Z,74.37
2019-05-20T10:17:01.809Z,74.28
2019-05-20T10:22:04.143Z,74.50
2019-05-20T10:27:06.290Z,74.57
2019-05-20T10:32:08.475Z,72.96
2019-05-20T10:37:10.710Z,73.62
2019-05-20T10:42:12.769Z,74.38
2019-05-20T10:47:14.887Z,73.31
2019-05-20T10:52:16.975Z,73.42
2019-05-20T10:57:18.902Z,73.99
2019-05-20T11:02:20.986Z,73.96
2019-05-20T11:07:22.972Z,73.64
2019-05-20T11:12:24.917Z,74.30
2019-05-20T11:17:27.290Z,73.53
2019-05-20T11:22:29.558Z,74.30
2019-05-20T11:27:31.674Z,74.87
2019-05-20T11:32:33.852Z,74.27
2019-05-20T11:37:36.045Z,74.12
2019-05-20T11:42:38.171Z,72.78
2019-05-20T11:47:40.401Z,73.03
2019-05-20T11:52:42.376Z,73.24
2019-05-20T11:57:44.921Z,73.37
2019-05-20T12:02:48.133Z,73.25
2019-05-20T12:07:50.138Z,72.92
2019-05-20T12:12:52.423Z,72.65
2019-05-20T12:17:54.460Z,72.96
2019-05-20T12:22:56.546Z,72.16
2019-05-20T12:27:58.617Z,72.65
2019-05-20T12:33:17.859Z,73.28
2019-05-20T12:38:04.921Z,74.27
2019-05-20T12:43:06.918Z,74.77
2019-05-20T12:48:10.053Z,75.34
2019-05-20T12:53:12.111Z,75.40
2019-05-20T12:58:14.105Z,75.78
2019-05-20T13:03:17.529Z,75.92
2019-05-20T13:08:19.552Z,76.18
2019-05-20T13:13:22.629Z,76.62
2019-05-20T13:18:25.882Z,76.51
2019-05-20T13:23:27.975Z,77.66
2019-05-20T13:28:30.041Z,78.49
2019-05-20T13:33:32.194Z,78.80
2019-05-20T13:38:34.143Z,79.05
2019-05-20T13:43:36.072Z,78.31
2019-05-20T13:48:38.101Z,77.80
2019-05-20T13:53:40.144Z,77.07
2019-05-20T13:58:42.072Z,78.03
2019-05-20T14:03:44.139Z,78.47
2019-05-20T14:08:46.212Z,78.02
2019-05-20T14:13:48.378Z,77.89
2019-05-20T14:18:50.449Z,77.64
2019-05-20T14:23:53.809Z,77.89
2019-05-20T14:28:56.029Z,77.07
2019-05-20T14:33:57.994Z,76.51
2019-05-20T14:39:00.232Z,76.27
2019-05-20T14:44:02.426Z,76.75
2019-05-20T14:49:05.384Z,76.11
2019-05-20T14:54:07.563Z,75.65
2019-05-20T14:59:09.648Z,75.55
2019-05-20T15:04:11.671Z,75.29
2019-05-20T15:09:13.681Z,75.15
2019-05-20T15:14:15.773Z,75.09
2019-05-20T15:19:17.825Z,74.99
2019-05-20T15:24:19.805Z,75.15
2019-05-20T15:34:35.539Z,74.29
2019-05-20T15:39:38.755Z,75.08
2019-05-20T15:44:40.705Z,75.11
2019-05-20T15:49:43.904Z,75.54
2019-05-20T15:54:47.166Z,75.50
2019-05-20T15:59:49.149Z,74.63
2019-05-20T16:04:51.069Z,74.94
2019-05-20T16:09:53.275Z,74.92
2019-05-20T16:14:55.234Z,75.20
